Time;durP1;ratioP1;P1;durP2;ratioP2;P2;SDS_P1;SDS_P2;PMS_P1;PMS_P2;Temp;Humidity;BMP_temperature;BMP_pressure;BME280_temperature;BME280_humidity;BME280_pressure;Samples;Min_cycle;Max_cycle;Signal;HPM_P1;HPM_P2
2024/02/24 00:01:11;;;;;;;0.30;0.30;;;7.40;99.90;;;;;;4148521;28;20050;-57
2024/02/24 00:03:14;;;;;;;2.05;0.20;;;7.40;99.90;;;;;;4149205;28;20464;-57
2024/02/24 00:05:17;;;;;;;1.50;0.82;;;7.50;99.90;;;;;;4148628;28;20117;-58
2024/02/24 00:07:19;;;;;;;0.17;0.10;;;7.50;99.90;;;;;;4148581;28;20046;-57
2024/02/24 00:09:22;;;;;;;0.10;0.10;;;7.50;99.90;;;;;;4148954;28;20054;-57
2024/02/24 00:11:24;;;;;;;0.32;0.28;;;7.50;99.90;;;;;;4149053;28;20049;-59
2024/02/24 00:13:26;;;;;;;0.47;0.47;;;7.50;99.90;;;;;;4148504;28;20082;-57
2024/02/24 00:15:28;;;;;;;0.20;0.20;;;7.50;99.90;;;;;;4131039;28;20057;-61
2024/02/24 00:17:31;;;;;;;0.10;0.10;;;7.50;99.90;;;;;;4148286;28;20046;-60
2024/02/24 00:19:33;;;;;;;2.65;1.02;;;7.50;99.90;;;;;;4148206;28;20046;-57
2024/02/24 00:21:37;;;;;;;0.20;0.13;;;7.50;99.90;;;;;;4148104;28;20073;-57
2024/02/24 00:23:39;;;;;;;0.40;0.10;;;7.50;99.90;;;;;;4147789;28;20056;-57
2024/02/24 00:25:41;;;;;;;0.10;0.10;;;7.40;99.90;;;;;;4148281;28;20050;-57
2024/02/24 00:27:43;;;;;;;0.00;0.00;;;7.30;99.90;;;;;;4148663;28;20466;-58
2024/02/24 00:29:45;;;;;;;0.32;0.20;;;7.30;99.90;;;;;;4148317;28;20076;-57
2024/02/24 00:31:47;;;;;;;0.25;0.10;;;7.30;99.90;;;;;;4148260;28;20054;-58
2024/02/24 00:33:49;;;;;;;0.10;0.10;;;7.20;99.90;;;;;;4148130;28;20077;-57
2024/02/24 00:35:52;;;;;;;1.13;0.35;;;7.10;99.90;;;;;;4148016;28;20050;-57
2024/02/24 00:37:56;;;;;;;0.60;0.20;;;7.10;99.90;;;;;;4148043;28;20513;-57
2024/02/24 00:39:58;;;;;;;0.00;0.00;;;7.10;99.90;;;;;;4148747;28;20141;-58
2024/02/24 00:42:00;;;;;;;0.15;0.10;;;7.10;99.90;;;;;;4148528;28;20050;-57
2024/02/24 00:44:03;;;;;;;0.00;0.00;;;7.10;99.90;;;;;;4149074;28;20473;-57
2024/02/24 00:46:07;;;;;;;;;;;7.10;99.90;;;;;;4149011;28;20121;-58
2024/02/24 00:48:10;;;;;;;0.20;0.20;;;7.00;99.90;;;;;;4148385;28;19922;-59
2024/02/24 00:50:12;;;;;;;0.60;0.55;;;7.00;99.90;;;;;;4148128;28;20057;-57
2024/02/24 00:52:14;;;;;;;0.98;0.28;;;7.00;99.90;;;;;;4147917;28;20049;-57
2024/02/24 00:54:18;;;;;;;0.17;0.17;;;7.20;99.90;;;;;;4148404;28;20096;-57
2024/02/24 00:56:21;;;;;;;0.20;0.20;;;7.20;99.90;;;;;;4148130;28;20049;-57
2024/02/24 00:58:23;;;;;;;0.32;0.10;;;7.30;99.90;;;;;;4147951;28;20126;-57
2024/02/24 01:00:25;;;;;;;0.20;0.10;;;7.20;99.90;;;;;;4147955;28;20054;-57
2024/02/24 01:02:28;;;;;;;0.20;0.10;;;7.20;99.90;;;;;;4147784;28;20068;-57
2024/02/24 01:04:30;;;;;;;0.08;0.08;;;7.30;99.90;;;;;;4147633;28;20038;-56
2024/02/24 01:06:32;;;;;;;0.40;0.40;;;7.20;99.90;;;;;;4148008;28;20053;-56
2024/02/24 01:08:34;;;;;;;0.38;0.20;;;7.20;99.90;;;;;;4148156;28;20053;-58
2024/02/24 01:10:37;;;;;;;0.10;0.10;;;7.20;99.90;;;;;;4148034;28;20100;-56
2024/02/24 01:12:39;;;;;;;1.10;0.20;;;7.10;99.90;;;;;;4147690;28;20046;-57
2024/02/24 01:14:42;;;;;;;0.00;0.00;;;7.10;99.90;;;;;;4147831;28;20173;-58
2024/02/24 01:16:44;;;;;;;0.90;0.10;;;7.10;99.90;;;;;;4147620;28;20046;-57
2024/02/24 01:18:46;;;;;;;0.03;0.03;;;7.10;99.90;;;;;;4147513;28;20049;-57
2024/02/24 01:20:48;;;;;;;0.10;0.10;;;7.10;99.90;;;;;;4147686;28;20050;-57
2024/02/24 01:22:55;;;;;;;0.10;0.10;;;7.10;99.90;;;;;;4147940;28;20046;-57
2024/02/24 01:24:57;;;;;;;0.10;0.10;;;6.90;99.90;;;;;;4147937;28;20072;-57
2024/02/24 01:27:01;;;;;;;0.05;0.05;;;6.80;99.90;;;;;;4147942;28;20133;-57
2024/02/24 01:29:03;;;;;;;0.10;0.10;;;6.80;99.90;;;;;;4148203;28;20084;-58
2024/02/24 01:31:05;;;;;;;0.13;0.13;;;6.80;99.90;;;;;;4149494;28;20049;-57
2024/02/24 01:33:07;;;;;;;0.10;0.10;;;6.70;99.90;;;;;;4147571;28;20211;-56
2024/02/24 01:35:10;;;;;;;0.10;0.10;;;6.70;99.90;;;;;;4148421;28;20046;-57
2024/02/24 01:37:12;;;;;;;0.10;0.10;;;6.70;99.90;;;;;;4151117;28;20053;-56
2024/02/24 01:39:14;;;;;;;0.30;0.20;;;6.80;99.90;;;;;;4151600;28;20056;-59
2024/02/24 01:41:16;;;;;;;7.40;0.85;;;6.80;99.90;;;;;;4151977;28;20080;-58
2024/02/24 01:43:24;;;;;;;0.10;0.10;;;6.60;99.90;;;;;;4152350;28;20042;-62
2024/02/24 01:45:26;;;;;;;1.75;0.10;;;6.60;99.90;;;;;;4152631;28;20104;-56
2024/02/24 01:47:28;;;;;;;1.02;0.80;;;6.60;99.90;;;;;;4151991;28;20093;-56
2024/02/24 01:49:31;;;;;;;0.60;0.60;;;6.60;99.90;;;;;;4151581;28;20042;-57
2024/02/24 01:51:33;;;;;;;0.08;0.03;;;6.50;99.90;;;;;;4151018;28;20133;-57
2024/02/24 01:53:41;;;;;;;1.05;0.22;;;6.40;99.90;;;;;;4150800;28;20046;-56
2024/02/24 01:55:44;;;;;;;0.47;0.22;;;6.40;99.90;;;;;;4150589;28;20061;-58
2024/02/24 01:57:47;;;;;;;0.30;0.30;;;6.40;99.90;;;;;;4150728;28;20468;-57
2024/02/24 01:59:51;;;;;;;0.10;0.10;;;6.40;99.90;;;;;;4150737;28;20042;-57
2024/02/24 02:01:53;;;;;;;0.38;0.10;;;6.40;99.90;;;;;;4150392;28;20050;-58
2024/02/24 02:03:56;;;;;;;0.50;0.50;;;6.40;99.90;;;;;;4151435;28;20470;-58
2024/02/24 02:05:59;;;;;;;0.30;0.20;;;6.30;99.90;;;;;;4135986;28;20046;-59
2024/02/24 02:08:01;;;;;;;0.30;0.10;;;6.40;99.90;;;;;;4152346;28;20129;-58
2024/02/24 02:10:05;;;;;;;0.22;0.20;;;6.40;99.90;;;;;;4150744;28;20100;-58
2024/02/24 02:12:08;;;;;;;0.03;0.03;;;6.30;99.90;;;;;;4150649;28;20042;-57
2024/02/24 02:14:11;;;;;;;0.45;0.45;;;6.20;99.90;;;;;;4150572;28;20045;-57
2024/02/24 02:16:16;;;;;;;0.73;0.28;;;6.20;99.90;;;;;;4132905;28;20101;-56
2024/02/24 02:18:18;;;;;;;0.30;0.22;;;6.20;99.90;;;;;;4150366;28;20054;-57
2024/02/24 02:20:21;;;;;;;0.10;0.10;;;6.20;99.90;;;;;;4150251;28;20128;-57
2024/02/24 02:22:24;;;;;;;0.20;0.20;;;6.20;99.90;;;;;;4150411;28;20058;-57
2024/02/24 02:24:27;;;;;;;0.38;0.38;;;6.30;99.90;;;;;;4150578;28;20045;-56
2024/02/24 02:26:29;;;;;;;0.43;0.40;;;6.30;99.90;;;;;;4150349;28;20049;-57
2024/02/24 02:28:31;;;;;;;1.13;0.73;;;6.30;99.90;;;;;;4150386;28;20057;-57
2024/02/24 02:30:33;;;;;;;1.55;0.40;;;6.20;99.90;;;;;;4149936;28;20128;-59
2024/02/24 02:32:36;;;;;;;0.20;0.17;;;6.20;99.90;;;;;;4149957;28;20062;-57
2024/02/24 02:34:38;;;;;;;0.10;0.10;;;6.10;99.90;;;;;;4150536;28;20417;-57
2024/02/24 02:36:42;;;;;;;0.52;0.50;;;6.20;99.90;;;;;;4149833;28;20405;-59
2024/02/24 02:38:45;;;;;;;0.73;0.10;;;6.20;99.90;;;;;;4152253;28;20042;-60
2024/02/24 02:40:48;;;;;;;5.72;1.20;;;6.30;99.90;;;;;;4152391;28;20050;-58
2024/02/24 02:42:50;;;;;;;0.20;0.10;;;6.20;99.90;;;;;;4151114;28;20053;-58
2024/02/24 02:44:52;;;;;;;0.30;0.17;;;6.20;99.90;;;;;;4150039;28;20130;-58
2024/02/24 02:46:54;;;;;;;0.65;0.30;;;6.30;99.90;;;;;;4149706;28;20054;-62
2024/02/24 02:48:56;;;;;;;1.27;0.10;;;6.20;99.90;;;;;;4149969;28;20050;-57
2024/02/24 02:50:59;;;;;;;0.10;0.10;;;6.20;99.90;;;;;;4150116;28;20054;-58
2024/02/24 02:53:01;;;;;;;0.30;0.20;;;6.10;99.90;;;;;;4149906;28;20105;-57
2024/02/24 02:55:05;;;;;;;0.20;0.20;;;6.10;99.90;;;;;;4149641;28;20072;-57
2024/02/24 02:57:07;;;;;;;0.20;0.20;;;6.10;99.90;;;;;;4150716;28;20305;-56
2024/02/24 02:59:12;;;;;;;0.15;0.13;;;6.10;99.90;;;;;;4149737;28;20042;-57
2024/02/24 03:01:14;;;;;;;0.10;0.10;;;6.00;99.90;;;;;;4149875;28;20049;-57
2024/02/24 03:03:19;;;;;;;1.58;0.55;;;6.10;99.90;;;;;;4149701;28;20410;-58
2024/02/24 03:05:22;;;;;;;0.15;0.15;;;6.10;99.90;;;;;;4149847;28;20068;-57
2024/02/24 03:07:24;;;;;;;0.08;0.08;;;6.10;99.90;;;;;;4132502;28;20414;-58
2024/02/24 03:09:27;;;;;;;1.35;0.65;;;6.00;99.90;;;;;;4149830;28;20452;-57
2024/02/24 03:11:31;;;;;;;1.75;1.25;;;6.00;99.90;;;;;;4149570;28;20472;-58
2024/02/24 03:13:33;;;;;;;0.20;0.10;;;6.00;99.90;;;;;;4149250;28;20049;-57
2024/02/24 03:15:35;;;;;;;0.25;0.20;;;6.10;99.90;;;;;;4149271;28;20402;-57
2024/02/24 03:17:37;;;;;;;0.52;0.52;;;6.10;99.90;;;;;;4149525;28;20486;-57
2024/02/24 03:19:40;;;;;;;0.40;0.40;;;6.10;99.90;;;;;;4149459;28;20045;-57
2024/02/24 03:21:43;;;;;;;0.45;0.10;;;6.10;99.90;;;;;;4149213;28;20056;-57
2024/02/24 03:23:45;;;;;;;0.08;0.08;;;6.10;99.90;;;;;;4149394;28;20129;-57
2024/02/24 03:25:47;;;;;;;0.20;0.20;;;6.10;99.90;;;;;;4149490;28;20046;-57
2024/02/24 03:27:51;;;;;;;0.10;0.10;;;6.10;99.90;;;;;;4150824;28;20050;-57
2024/02/24 03:29:56;;;;;;;0.20;0.20;;;6.10;99.90;;;;;;4149495;28;20400;-57
2024/02/24 03:32:00;;;;;;;1.15;0.50;;;6.00;99.90;;;;;;4149106;28;20050;-57
2024/02/24 03:34:02;;;;;;;1.75;0.50;;;6.00;99.90;;;;;;4148882;28;20053;-57
2024/02/24 03:36:05;;;;;;;0.10;0.10;;;6.00;99.90;;;;;;4149253;28;20050;-57
2024/02/24 03:38:07;;;;;;;0.47;0.17;;;6.00;99.90;;;;;;4149108;28;20408;-57
2024/02/24 03:40:12;;;;;;;0.10;0.10;;;6.00;99.90;;;;;;4149297;28;20052;-58
2024/02/24 03:42:14;;;;;;;0.17;0.17;;;6.00;99.90;;;;;;4149393;28;20041;-57
2024/02/24 03:44:17;;;;;;;3.47;1.05;;;6.00;99.90;;;;;;4148538;28;20057;-57
2024/02/24 03:46:20;;;;;;;0.20;0.20;;;6.00;99.90;;;;;;4148833;28;20054;-57
2024/02/24 03:48:22;;;;;;;0.28;0.22;;;6.10;99.90;;;;;;4148717;28;20045;-58
2024/02/24 03:50:24;;;;;;;0.93;0.68;;;6.20;99.90;;;;;;4148824;28;20073;-57
2024/02/24 03:52:27;;;;;;;8.68;0.30;;;6.00;99.90;;;;;;4148596;28;20049;-57
2024/02/24 03:54:29;;;;;;;0.15;0.10;;;6.00;99.90;;;;;;4148961;28;20045;-58
2024/02/24 03:56:31;;;;;;;0.15;0.10;;;6.00;99.90;;;;;;4148756;28;20050;-62
2024/02/24 03:58:34;;;;;;;0.10;0.10;;;6.00;99.90;;;;;;4147829;28;20500;-58
2024/02/24 04:00:37;;;;;;;2.03;0.85;;;6.00;99.90;;;;;;4148305;28;20046;-57
2024/02/24 04:02:45;;;;;;;0.55;0.43;;;6.10;99.90;;;;;;4148508;28;20045;-58
2024/02/24 04:04:47;;;;;;;0.25;0.10;;;6.00;99.90;;;;;;4148629;28;20050;-57
2024/02/24 04:06:50;;;;;;;0.00;0.00;;;6.00;99.90;;;;;;4148655;28;20096;-58
2024/02/24 04:08:52;;;;;;;0.45;0.45;;;5.90;99.90;;;;;;4148522;28;20058;-57
2024/02/24 04:10:54;;;;;;;0.17;0.17;;;5.90;99.90;;;;;;4148949;28;20445;-57
2024/02/24 04:12:56;;;;;;;1.55;0.80;;;6.00;99.90;;;;;;4148307;28;20046;-57
2024/02/24 04:14:58;;;;;;;0.13;0.13;;;6.00;99.90;;;;;;4148447;28;20049;-57
2024/02/24 04:17:01;;;;;;;0.20;0.20;;;6.00;99.90;;;;;;4148397;28;20046;-57
2024/02/24 04:19:04;;;;;;;1.65;0.52;;;6.00;99.90;;;;;;4148267;28;20464;-58
2024/02/24 04:21:06;;;;;;;0.20;0.10;;;6.00;99.90;;;;;;4130924;28;20510;-56
2024/02/24 04:23:08;;;;;;;0.60;0.28;;;6.00;99.90;;;;;;4148500;28;20046;-58
2024/02/24 04:25:10;;;;;;;0.20;0.20;;;6.00;99.90;;;;;;4148428;28;20057;-57
2024/02/24 04:27:12;;;;;;;0.15;0.15;;;5.90;99.90;;;;;;4148001;28;20053;-57
2024/02/24 04:29:14;;;;;;;0.03;0.03;;;5.90;99.90;;;;;;4148000;28;20124;-57
2024/02/24 04:31:16;;;;;;;0.68;0.40;;;5.90;99.90;;;;;;4130831;28;20054;-57
2024/02/24 04:33:20;;;;;;;0.30;0.30;;;5.90;99.90;;;;;;4148058;28;20141;-57
2024/02/24 04:35:25;;;;;;;0.40;0.30;;;5.80;99.90;;;;;;4148460;28;20050;-57
2024/02/24 04:37:28;;;;;;;0.55;0.52;;;5.80;99.90;;;;;;4148222;28;20046;-58
2024/02/24 04:39:29;;;;;;;0.20;0.10;;;5.90;99.90;;;;;;4148085;28;20052;-58
2024/02/24 04:41:32;;;;;;;2.35;1.02;;;5.90;99.90;;;;;;4148649;28;20045;-57
2024/02/24 04:43:34;;;;;;;0.98;0.65;;;5.90;99.90;;;;;;4148755;28;20100;-58
2024/02/24 04:45:38;;;;;;;6.80;1.20;;;6.00;99.90;;;;;;4148627;28;20046;-58
2024/02/24 04:47:40;;;;;;;0.22;0.10;;;5.90;99.90;;;;;;4131096;28;20446;-59
2024/02/24 04:49:47;;;;;;;0.63;0.13;;;5.80;99.90;;;;;;4148072;28;20062;-57
2024/02/24 04:51:49;;;;;;;0.28;0.25;;;5.90;99.90;;;;;;4148140;28;20465;-57
2024/02/24 04:53:52;;;;;;;0.30;0.20;;;5.90;99.90;;;;;;4147805;28;20042;-58
2024/02/24 04:55:54;;;;;;;0.47;0.20;;;6.00;99.90;;;;;;4147889;28;20046;-58
2024/02/24 04:57:57;;;;;;;0.68;0.68;;;5.90;99.90;;;;;;4130540;28;20066;-57
2024/02/24 04:59:59;;;;;;;0.93;0.22;;;5.80;99.90;;;;;;4148091;28;20070;-57
2024/02/24 05:02:01;;;;;;;0.60;0.20;;;5.80;99.90;;;;;;4147808;28;20056;-58
2024/02/24 05:04:03;;;;;;;0.50;0.30;;;5.80;99.90;;;;;;4148249;28;20413;-57
2024/02/24 05:06:08;;;;;;;0.20;0.20;;;5.80;99.90;;;;;;4148695;28;20054;-57
2024/02/24 05:08:10;;;;;;;0.30;0.20;;;5.70;99.90;;;;;;4149118;28;20042;-57
2024/02/24 05:10:14;;;;;;;1.45;0.10;;;5.80;99.90;;;;;;4148181;28;20144;-58
2024/02/24 05:12:16;;;;;;;0.73;0.73;;;5.80;99.90;;;;;;4147944;28;20104;-57
2024/02/24 05:14:19;;;;;;;0.52;0.50;;;5.90;99.90;;;;;;4147829;28;20834;-57
2024/02/24 05:16:21;;;;;;;0.10;0.10;;;5.90;99.90;;;;;;4147832;28;20096;-56
2024/02/24 05:18:23;;;;;;;0.65;0.22;;;5.90;99.90;;;;;;4147663;28;20073;-56
2024/02/24 05:20:25;;;;;;;1.52;0.55;;;6.00;99.90;;;;;;4147733;28;20117;-57
2024/02/24 05:22:30;;;;;;;3.90;0.98;;;6.00;99.90;;;;;;4147442;28;20459;-56
2024/02/24 05:24:32;;;;;;;0.10;0.10;;;6.00;99.90;;;;;;4147503;28;20053;-57
2024/02/24 05:26:34;;;;;;;0.88;0.52;;;6.00;99.90;;;;;;4148010;28;20148;-57
2024/02/24 05:28:39;;;;;;;0.47;0.20;;;6.00;99.90;;;;;;4148099;28;20046;-57
2024/02/24 05:30:41;;;;;;;;;;;6.00;99.90;;;;;;4149070;28;20421;-58
2024/02/24 05:32:43;;;;;;;0.30;0.25;;;6.00;99.90;;;;;;4149811;28;19929;-59
2024/02/24 05:34:46;;;;;;;0.10;0.10;;;6.00;99.90;;;;;;4130811;28;20047;-58
2024/02/24 05:36:51;;;;;;;0.10;0.10;;;6.00;99.90;;;;;;4147934;28;20061;-57
2024/02/24 05:38:55;;;;;;;1.08;0.30;;;6.10;99.90;;;;;;4147784;28;20042;-57
2024/02/24 05:40:58;;;;;;;0.20;0.20;;;6.10;99.90;;;;;;4148025;28;20046;-59
2024/02/24 05:42:59;;;;;;;0.38;0.30;;;6.20;99.90;;;;;;4147952;28;20125;-56
2024/02/24 05:45:02;;;;;;;1.00;0.20;;;6.20;99.90;;;;;;4147686;28;20493;-57
2024/02/24 05:47:05;;;;;;;1.65;0.32;;;6.00;99.90;;;;;;4147614;28;20046;-58
2024/02/24 05:49:07;;;;;;;0.30;0.30;;;6.00;99.90;;;;;;4147661;28;20096;-58
2024/02/24 05:51:10;;;;;;;1.27;0.57;;;6.00;99.90;;;;;;4130210;28;20146;-58
2024/02/24 05:53:12;;;;;;;0.65;0.52;;;6.00;99.90;;;;;;4147644;28;20157;-57
2024/02/24 05:55:16;;;;;;;3.35;0.55;;;6.10;99.90;;;;;;4147894;28;20048;-58
2024/02/24 05:57:18;;;;;;;0.43;0.22;;;6.00;99.90;;;;;;4147902;28;20130;-58
2024/02/24 05:59:20;;;;;;;0.10;0.10;;;6.00;99.90;;;;;;4130921;28;20046;-57
2024/02/24 06:01:22;;;;;;;1.38;0.20;;;6.00;99.90;;;;;;4148789;28;20125;-59
2024/02/24 06:03:25;;;;;;;0.20;0.20;;;6.00;99.90;;;;;;4148004;28;20104;-63
2024/02/24 06:05:28;;;;;;;1.00;0.40;;;6.00;99.90;;;;;;4148211;28;20050;-58
2024/02/24 06:07:32;;;;;;;0.50;0.17;;;6.00;99.90;;;;;;4147055;28;20045;-58
2024/02/24 06:09:34;;;;;;;0.20;0.20;;;6.00;99.90;;;;;;4147748;28;20116;-57
2024/02/24 06:11:38;;;;;;;0.50;0.45;;;6.00;99.90;;;;;;4147340;28;20093;-58
2024/02/24 06:13:41;;;;;;;1.50;0.25;;;6.00;99.90;;;;;;4147685;28;20046;-57
2024/02/24 06:15:43;;;;;;;2.42;1.17;;;6.00;99.90;;;;;;4147492;28;20493;-57
2024/02/24 06:17:45;;;;;;;1.30;0.88;;;5.90;99.90;;;;;;4147138;28;20074;-57
2024/02/24 06:19:47;;;;;;;2.83;0.50;;;5.90;99.90;;;;;;4129919;28;20073;-58
2024/02/24 06:21:49;;;;;;;0.90;0.55;;;5.90;99.90;;;;;;4148450;28;20096;-58
2024/02/24 06:23:51;;;;;;;0.65;0.43;;;5.90;99.90;;;;;;4150028;28;20053;-57
2024/02/24 06:25:53;;;;;;;0.10;0.10;;;6.00;99.90;;;;;;4150173;28;20073;-58
2024/02/24 06:27:58;;;;;;;0.20;0.17;;;5.90;99.90;;;;;;4150147;28;20050;-57
2024/02/24 06:30:00;;;;;;;;;;;5.80;99.90;;;;;;4150681;28;20393;-57
2024/02/24 06:32:02;;;;;;;13.40;1.77;;;5.80;99.90;;;;;;4149747;28;20291;-58
2024/02/24 06:34:04;;;;;;;0.43;0.20;;;5.80;99.90;;;;;;4150026;28;20058;-57
2024/02/24 06:36:10;;;;;;;0.70;0.57;;;5.80;99.90;;;;;;4149732;28;20046;-57
2024/02/24 06:38:12;;;;;;;0.85;0.28;;;5.80;99.90;;;;;;4149325;28;20038;-57
2024/02/24 06:40:14;;;;;;;1.88;1.02;;;5.90;99.90;;;;;;4150008;28;20053;-57
2024/02/24 06:42:30;;;;;;;0.38;0.20;;;5.90;99.90;;;;;;4150290;28;20076;-57
2024/02/24 06:44:34;;;;;;;0.60;0.40;;;6.00;99.90;;;;;;4150076;28;20176;-57
2024/02/24 06:46:36;;;;;;;0.45;0.20;;;5.90;99.90;;;;;;4133029;28;20053;-57
2024/02/24 06:48:38;;;;;;;1.13;0.75;;;5.90;99.90;;;;;;4150845;28;20129;-58
2024/02/24 06:50:40;;;;;;;0.75;0.30;;;6.00;99.90;;;;;;4150033;28;20474;-57
2024/02/24 06:52:42;;;;;;;1.70;0.73;;;6.00;99.90;;;;;;4149459;28;20045;-57
2024/02/24 06:54:45;;;;;;;0.20;0.17;;;6.00;99.90;;;;;;4149669;28;20046;-57
2024/02/24 06:56:47;;;;;;;0.22;0.22;;;6.00;99.90;;;;;;4149304;28;20088;-56
2024/02/24 06:58:49;;;;;;;1.10;0.20;;;6.00;99.90;;;;;;4149551;28;20482;-57
2024/02/24 07:00:53;;;;;;;0.28;0.20;;;6.00;99.90;;;;;;4132100;28;20046;-57
2024/02/24 07:02:57;;;;;;;0.22;0.15;;;6.00;99.90;;;;;;4149665;28;20058;-58
2024/02/24 07:05:02;;;;;;;4.67;0.70;;;5.90;99.90;;;;;;4149608;28;20049;-57
2024/02/24 07:07:07;;;;;;;0.57;0.57;;;6.00;99.90;;;;;;4149171;28;20452;-57
2024/02/24 07:09:09;;;;;;;0.65;0.40;;;6.10;99.90;;;;;;4149965;28;20116;-58
2024/02/24 07:11:12;;;;;;;1.08;0.45;;;6.00;99.90;;;;;;4149803;28;20050;-57
2024/02/24 07:13:14;;;;;;;0.52;0.28;;;6.00;99.90;;;;;;4149918;28;20102;-57
2024/02/24 07:15:17;;;;;;;0.10;0.10;;;6.00;99.90;;;;;;4149380;28;20153;-57
2024/02/24 07:17:23;;;;;;;0.22;0.20;;;6.10;99.90;;;;;;4149999;28;20053;-57
2024/02/24 07:19:26;;;;;;;0.98;0.60;;;6.20;99.90;;;;;;4149690;28;20220;-57
2024/02/24 07:21:28;;;;;;;0.30;0.30;;;6.20;99.90;;;;;;4132134;28;20051;-57
2024/02/24 07:23:30;;;;;;;0.43;0.30;;;6.10;99.90;;;;;;4149973;28;20050;-57
2024/02/24 07:25:33;;;;;;;0.38;0.30;;;6.10;99.90;;;;;;4149985;28;20057;-57
2024/02/24 07:27:35;;;;;;;0.73;0.20;;;6.20;99.90;;;;;;4149876;28;20046;-58
2024/02/24 07:29:38;;;;;;;0.30;0.13;;;6.20;99.90;;;;;;4150226;28;20053;-57
2024/02/24 07:31:40;;;;;;;4.47;1.00;;;6.10;99.90;;;;;;4149291;28;20464;-58
2024/02/24 07:33:45;;;;;;;0.98;0.40;;;6.20;99.90;;;;;;4148765;28;20054;-59
2024/02/24 07:35:47;;;;;;;0.63;0.50;;;6.20;99.90;;;;;;4149831;28;20140;-58
2024/02/24 07:37:49;;;;;;;5.25;0.93;;;6.30;99.90;;;;;;4149695;28;20053;-57
2024/02/24 07:39:52;;;;;;;0.70;0.30;;;6.30;99.90;;;;;;4149427;28;20045;-58
2024/02/24 07:41:54;;;;;;;0.22;0.20;;;6.30;99.90;;;;;;4149678;28;20046;-58
2024/02/24 07:43:59;;;;;;;0.52;0.52;;;6.30;99.90;;;;;;4149248;28;20486;-58
2024/02/24 07:46:03;;;;;;;1.13;0.57;;;6.40;99.90;;;;;;4149251;28;20457;-57
2024/02/24 07:48:06;;;;;;;10.25;1.85;;;6.40;99.90;;;;;;4131967;28;20054;-58
2024/02/24 07:50:10;;;;;;;1.00;0.28;;;6.50;99.90;;;;;;4148994;28;20056;-58
2024/02/24 07:52:13;;;;;;;0.65;0.65;;;6.50;99.90;;;;;;4148814;28;20056;-57
2024/02/24 07:54:15;;;;;;;0.13;0.13;;;6.50;99.90;;;;;;4148882;28;20068;-56
2024/02/24 07:56:20;;;;;;;0.65;0.30;;;6.30;99.90;;;;;;4148940;28;20052;-58
2024/02/24 07:58:26;;;;;;;1.35;0.90;;;6.40;99.90;;;;;;4148999;28;20054;-59
2024/02/24 08:00:28;;;;;;;0.20;0.20;;;6.40;99.90;;;;;;4148889;28;20460;-58
2024/02/24 08:02:30;;;;;;;2.55;1.10;;;6.60;99.90;;;;;;4148624;28;20046;-57
2024/02/24 08:04:32;;;;;;;0.52;0.20;;;6.60;99.90;;;;;;4130965;28;20046;-58
2024/02/24 08:06:36;;;;;;;1.42;0.70;;;6.70;99.90;;;;;;4148719;28;20409;-57
2024/02/24 08:08:38;;;;;;;0.30;0.10;;;6.70;99.90;;;;;;4148779;28;20046;-57
2024/02/24 08:10:42;;;;;;;0.40;0.35;;;6.70;99.90;;;;;;4149182;28;20048;-59
2024/02/24 08:12:48;;;;;;;8.20;2.05;;;6.60;99.90;;;;;;4131296;28;20046;-61
2024/02/24 08:14:50;;;;;;;0.43;0.10;;;6.70;99.90;;;;;;4148560;28;20129;-58
2024/02/24 08:16:52;;;;;;;0.03;0.03;;;6.70;99.90;;;;;;4148547;28;20155;-58
2024/02/24 08:18:57;;;;;;;3.72;1.15;;;6.70;99.90;;;;;;4148128;28;20042;-58
2024/02/24 08:21:05;;;;;;;0.88;0.70;;;6.80;99.90;;;;;;4148153;28;20092;-58
2024/02/24 08:23:11;;;;;;;2.15;0.77;;;6.90;99.90;;;;;;4148265;28;20042;-57
2024/02/24 08:25:14;;;;;;;1.33;0.30;;;6.90;99.90;;;;;;4148224;28;20449;-57
2024/02/24 08:27:16;;;;;;;1.00;0.20;;;7.00;99.90;;;;;;4148099;28;20045;-58
2024/02/24 08:29:18;;;;;;;0.88;0.85;;;6.90;99.90;;;;;;4148840;28;20129;-58
2024/02/24 08:31:20;;;;;;;3.33;0.35;;;6.90;99.90;;;;;;4148732;28;20070;-57
2024/02/24 08:33:23;;;;;;;1.67;0.50;;;7.00;99.90;;;;;;4147578;28;20054;-58
2024/02/24 08:35:25;;;;;;;2.70;1.40;;;7.00;99.90;;;;;;4148341;28;20046;-57
2024/02/24 08:37:27;;;;;;;0.55;0.45;;;7.10;99.90;;;;;;4147955;28;20092;-57
2024/02/24 08:39:31;;;;;;;3.38;1.15;;;7.10;99.90;;;;;;4148022;28;20452;-58
2024/02/24 08:41:35;;;;;;;0.10;0.10;;;7.00;99.90;;;;;;4148103;28;20152;-57
2024/02/24 08:43:38;;;;;;;0.30;0.30;;;7.00;99.90;;;;;;4148241;28;20084;-57
2024/02/24 08:45:41;;;;;;;0.40;0.10;;;7.00;99.90;;;;;;4147858;28;20050;-56
2024/02/24 08:47:43;;;;;;;2.15;0.60;;;7.00;99.90;;;;;;4147774;28;20096;-57
2024/02/24 08:49:46;;;;;;;0.38;0.20;;;7.20;99.90;;;;;;4148218;28;20439;-57
2024/02/24 08:51:48;;;;;;;1.48;0.55;;;7.10;99.90;;;;;;4147874;28;20046;-58
2024/02/24 08:53:50;;;;;;;0.47;0.20;;;7.20;99.90;;;;;;4146949;28;20488;-57
2024/02/24 08:55:54;;;;;;;0.32;0.30;;;7.20;99.90;;;;;;4147893;28;20096;-57
2024/02/24 08:57:56;;;;;;;0.20;0.20;;;7.20;99.90;;;;;;4147927;28;20441;-57
2024/02/24 08:59:58;;;;;;;0.15;0.10;;;7.30;99.90;;;;;;4148074;28;20073;-57
2024/02/24 09:02:00;;;;;;;0.95;0.40;;;7.40;99.90;;;;;;4147499;28;20046;-56
2024/02/24 09:04:03;;;;;;;1.25;0.43;;;7.40;99.60;;;;;;4147968;28;20064;-56
2024/02/24 09:06:05;;;;;;;0.47;0.20;;;7.40;99.40;;;;;;4148057;28;20042;-57
2024/02/24 09:08:07;;;;;;;0.70;0.25;;;7.30;99.70;;;;;;4147609;28;20362;-58
2024/02/24 09:10:10;;;;;;;0.95;0.73;;;7.40;99.90;;;;;;4147754;28;20057;-56
2024/02/24 09:12:13;;;;;;;0.68;0.40;;;7.50;99.90;;;;;;4147987;28;20046;-58
2024/02/24 09:14:15;;;;;;;0.43;0.35;;;7.60;99.50;;;;;;4148256;28;20053;-57
2024/02/24 09:16:18;;;;;;;0.80;0.55;;;7.50;99.60;;;;;;4148175;28;20454;-62
2024/02/24 09:18:20;;;;;;;0.73;0.30;;;7.50;99.90;;;;;;4131143;28;20060;-57
2024/02/24 09:20:22;;;;;;;2.30;0.22;;;7.50;99.50;;;;;;4149456;28;20042;-59
2024/02/24 09:22:24;;;;;;;0.60;0.22;;;7.60;99.90;;;;;;4150207;28;20096;-60
2024/02/24 09:24:27;;;;;;;0.40;0.32;;;7.50;99.80;;;;;;4148999;28;20450;-57
2024/02/24 09:26:29;;;;;;;2.25;1.10;;;7.60;99.90;;;;;;4148048;28;20046;-57
2024/02/24 09:28:33;;;;;;;1.80;0.22;;;7.60;99.90;;;;;;4130411;28;20046;-58
2024/02/24 09:30:36;;;;;;;0.50;0.30;;;7.60;99.90;;;;;;4148071;28;20153;-61
2024/02/24 09:32:38;;;;;;;0.82;0.82;;;7.80;99.90;;;;;;4149641;28;20076;-58
2024/02/24 09:34:41;;;;;;;2.50;0.30;;;7.70;99.70;;;;;;4148765;28;20149;-58
2024/02/24 09:36:45;;;;;;;0.90;0.55;;;7.70;99.90;;;;;;4148068;28;20485;-57
2024/02/24 09:38:47;;;;;;;0.10;0.03;;;7.70;99.80;;;;;;4147780;28;20456;-57
2024/02/24 09:40:49;;;;;;;7.30;0.40;;;7.90;99.60;;;;;;4147475;28;20156;-58
2024/02/24 09:43:03;;;;;;;1.30;0.73;;;7.90;99.40;;;;;;4147956;28;20397;-57
2024/02/24 09:45:12;;;;;;;0.20;0.20;;;8.00;99.70;;;;;;4147365;28;20053;-58
2024/02/24 09:47:15;;;;;;;0.25;0.13;;;8.00;99.30;;;;;;4130166;28;20081;-58
2024/02/24 09:49:18;;;;;;;0.25;0.10;;;8.00;99.20;;;;;;4147520;28;20109;-58
2024/02/24 09:51:20;;;;;;;0.57;0.50;;;8.00;99.40;;;;;;4148042;28;20177;-60
2024/02/24 09:53:22;;;;;;;0.38;0.20;;;8.00;99.20;;;;;;4148045;28;20046;-58
2024/02/24 09:55:25;;;;;;;0.35;0.20;;;8.10;99.30;;;;;;4149305;28;20050;-58
2024/02/24 09:57:31;;;;;;;1.17;0.32;;;8.20;99.10;;;;;;4150927;28;20050;-57
2024/02/24 09:59:34;;;;;;;0.63;0.25;;;8.10;98.90;;;;;;4150356;28;20056;-58
2024/02/24 10:01:38;;;;;;;0.50;0.40;;;8.10;99.40;;;;;;4150751;28;20073;-57
2024/02/24 10:03:40;;;;;;;1.33;0.40;;;8.10;99.40;;;;;;4150268;28;20544;-58
2024/02/24 10:05:47;;;;;;;1.05;0.30;;;8.10;99.40;;;;;;4150469;28;20068;-57
2024/02/24 10:07:49;;;;;;;0.73;0.20;;;8.10;99.10;;;;;;4142615;28;20402;-57
2024/02/24 10:09:52;;;;;;;0.35;0.30;;;8.10;99.10;;;;;;4134641;28;20050;-58
2024/02/24 10:11:54;;;;;;;0.57;0.40;;;8.30;99.00;;;;;;4135837;28;20058;-65
2024/02/24 10:13:56;;;;;;;0.77;0.63;;;8.50;99.40;;;;;;4134774;28;20042;-58
2024/02/24 10:16:03;;;;;;;0.63;0.63;;;8.80;98.80;;;;;;4134410;28;20051;-58
2024/02/24 10:18:09;;;;;;;2.70;0.55;;;8.90;98.10;;;;;;4134262;28;20549;-57
2024/02/24 10:20:12;;;;;;;1.00;0.90;;;9.00;99.00;;;;;;4133993;28;20046;-58
2024/02/24 10:22:16;;;;;;;0.10;0.10;;;9.00;98.30;;;;;;4135889;28;20049;-58
2024/02/24 10:24:19;;;;;;;0.30;0.30;;;8.90;98.60;;;;;;4148506;28;20049;-58
2024/02/24 10:26:23;;;;;;;0.20;0.20;;;9.10;98.20;;;;;;4148841;28;20477;-63
2024/02/24 10:28:26;;;;;;;6.78;1.00;;;9.20;97.50;;;;;;4147968;28;20057;-61
2024/02/24 10:30:28;;;;;;;0.95;0.25;;;9.20;97.90;;;;;;4141398;28;20053;-57
2024/02/24 10:32:31;;;;;;;0.30;0.30;;;9.10;97.80;;;;;;4149865;28;20129;-58
2024/02/24 10:34:35;;;;;;;5.30;0.57;;;9.10;98.10;;;;;;4149988;28;20133;-58
2024/02/24 10:36:39;;;;;;;1.58;0.38;;;9.30;98.10;;;;;;4149707;28;20456;-59
2024/02/24 10:38:48;;;;;;;0.10;0.10;;;9.40;97.90;;;;;;4130372;28;20054;-58
2024/02/24 10:40:58;;;;;;;;;;;9.30;97.50;;;;;;4150189;28;20053;-58
2024/02/24 10:43:01;;;;;;;1.08;0.55;;;9.50;97.60;;;;;;4149257;28;19921;-59
2024/02/24 10:45:06;;;;;;;1.55;0.65;;;9.60;97.70;;;;;;4149684;28;20052;-59
2024/02/24 10:47:09;;;;;;;0.93;0.60;;;9.90;97.30;;;;;;4149978;28;20419;-57
2024/02/24 10:49:11;;;;;;;0.47;0.10;;;9.90;97.40;;;;;;4149867;28;20386;-57